首页
METAR-TAF:

METAR-TAF

机场 :

柏加謝沃機場

托木斯克, 俄罗斯

纬度: 56-23-12N, 经度: 085-12-38E, 海拔: 182米

当前天气观测

该预报发布于38分钟前的11:00 UTC
风速4节,风向西转西北
温度 23°C
湿度 78%
气压 1006 hPa
能见度10公里或以上
多云层高于2500英尺, 积雨云.
小阵雨

METAR: UNTT 231100Z 29002MPS 9999 -SHRA BKN025CB 23/19 Q1006 R21/190055 NOSIG RMK QFE739

时间: 18:38 (11:38 UTC)

预报

该预报发布于3小时和38分钟前的08:00 UTC
预报有效从23日的 09点(UTC)到 23日的 18点(UTC)
风速6节,风向西,有时为16节阵风
能見度: 8000
多云层高于2000英尺, 积雨云.
短暂存在
从 23日的 09点(UTC)到 23日的 15点(UTC)
雷暴, 小雨,

TAF: UNTT 230800Z 2309/2318 26003G08MPS 8000 BKN020CB TEMPO 2309/2315 -TSRA

超过4000个机场的气象观测和天气预报(METAR&TAF报告)。

可查询的气象台以黄色和红色小点在地图上表示。

将鼠标移到小点上方,可查看气象台名称。

然后点击查看天气观测和预报。

如需切换地图:点击带黑十字的绿色按钮放大地图;点击带横线的绿色按钮缩小地图;或者点击绿色箭头查看邻近地区的地图。


METAR-TAF: